OKFLY TNCM-TAPA
Flight info
| Callsign | OKFLY |
|---|---|
| Flight time | 0h 27m |
| Altitude | 15000 |
| Route | PJM B520 ANU |
| Aircraft | PC12/L-SDFGRWY/S |
Departure
| Time | 2026-04-30 20:58 |
|---|---|
| Airport | Princess Juliana International Airport (TNCM) |
Arrival
| Time | 2026-04-30 21:25 |
|---|---|
| Airport | V. C. Bird International Airport (TAPA) |
| Time | Latitude | Longitude | Altitude | Speed | Heading |
|---|---|---|---|---|---|
| 2026-04-30 20:42 | 18.04177 | -63.11239 | 17 ft | 0 kts | 171° |
| 2026-04-30 20:55 | 18.04173 | -63.11238 | 17 ft | 4 kts | 171° |
| 2026-04-30 20:55 | 18.04136 | -63.11277 | 17 ft | 5 kts | 263° |
| 2026-04-30 20:56 | 18.04120 | -63.11293 | 17 ft | 2 kts | 172° |
| 2026-04-30 20:56 | 18.04117 | -63.11293 | 17 ft | 0 kts | 178° |
| 2026-04-30 20:57 | 18.04094 | -63.11289 | 17 ft | 14 kts | 168° |
| 2026-04-30 20:58 | 18.04155 | -63.10454 | 17 ft | 107 kts | 79° |
| 2026-04-30 20:58 | 18.04279 | -63.09597 | 251 ft | 115 kts | 84° |
| 2026-04-30 20:58 | 18.04184 | -63.08761 | 632 ft | 128 kts | 128° |
| 2026-04-30 20:58 | 18.03341 | -63.08621 | 987 ft | 145 kts | 194° |
| 2026-04-30 20:59 | 18.01083 | -63.08117 | 941 ft | 213 kts | 125° |
| 2026-04-30 20:59 | 18.00268 | -63.06775 | 997 ft | 220 kts | 120° |
| 2026-04-30 21:00 | 17.98540 | -63.04129 | 1201 ft | 216 kts | 125° |
| 2026-04-30 21:00 | 17.96903 | -63.01758 | 2026 ft | 192 kts | 124° |
| 2026-04-30 21:01 | 17.95342 | -62.99479 | 3113 ft | 195 kts | 125° |
| 2026-04-30 21:01 | 17.94545 | -62.98318 | 3652 ft | 196 kts | 125° |
| 2026-04-30 21:01 | 17.92937 | -62.95977 | 4726 ft | 200 kts | 125° |
| 2026-04-30 21:02 | 17.92119 | -62.94786 | 5250 ft | 202 kts | 124° |
| 2026-04-30 21:02 | 17.91293 | -62.93584 | 5779 ft | 204 kts | 124° |
| 2026-04-30 21:02 | 17.90455 | -62.92362 | 6256 ft | 208 kts | 124° |
| 2026-04-30 21:02 | 17.89598 | -62.91118 | 6712 ft | 212 kts | 124° |
| 2026-04-30 21:03 | 17.88733 | -62.89858 | 7173 ft | 214 kts | 124° |
| 2026-04-30 21:03 | 17.87860 | -62.88589 | 7638 ft | 215 kts | 124° |
| 2026-04-30 21:03 | 17.86977 | -62.87306 | 8081 ft | 217 kts | 125° |
| 2026-04-30 21:03 | 17.86087 | -62.86012 | 8523 ft | 220 kts | 125° |
| 2026-04-30 21:04 | 17.85188 | -62.84705 | 8960 ft | 222 kts | 125° |
| 2026-04-30 21:04 | 17.84261 | -62.83358 | 9107 ft | 237 kts | 126° |
| 2026-04-30 21:04 | 17.82250 | -62.80439 | 9170 ft | 251 kts | 126° |
| 2026-04-30 21:05 | 17.81275 | -62.79022 | 9893 ft | 228 kts | 126° |
| 2026-04-30 21:05 | 17.80364 | -62.77698 | 10499 ft | 219 kts | 127° |
| 2026-04-30 21:05 | 17.79513 | -62.76460 | 11360 ft | 201 kts | 127° |
| 2026-04-30 21:05 | 17.78701 | -62.75280 | 12035 ft | 200 kts | 128° |
| 2026-04-30 21:06 | 17.77887 | -62.74100 | 12676 ft | 199 kts | 128° |
| 2026-04-30 21:06 | 17.77079 | -62.72925 | 13336 ft | 198 kts | 129° |
| 2026-04-30 21:06 | 17.76276 | -62.71761 | 13976 ft | 196 kts | 129° |
| 2026-04-30 21:06 | 17.75486 | -62.70614 | 14550 ft | 193 kts | 129° |
| 2026-04-30 21:07 | 17.74682 | -62.69452 | 14910 ft | 204 kts | 130° |
| 2026-04-30 21:07 | 17.73800 | -62.68184 | 15003 ft | 227 kts | 129° |
| 2026-04-30 21:07 | 17.72830 | -62.66781 | 15012 ft | 246 kts | 129° |
| 2026-04-30 21:07 | 17.71815 | -62.65306 | 15013 ft | 258 kts | 128° |
| 2026-04-30 21:08 | 17.70752 | -62.63761 | 15011 ft | 264 kts | 128° |
| 2026-04-30 21:08 | 17.69667 | -62.62188 | 15010 ft | 267 kts | 128° |
| 2026-04-30 21:08 | 17.68572 | -62.60603 | 15009 ft | 269 kts | 128° |
| 2026-04-30 21:08 | 17.67471 | -62.59009 | 15008 ft | 270 kts | 128° |
| 2026-04-30 21:09 | 17.66369 | -62.57414 | 15009 ft | 270 kts | 129° |
| 2026-04-30 21:09 | 17.65267 | -62.55818 | 15002 ft | 271 kts | 129° |
| 2026-04-30 21:09 | 17.64161 | -62.54217 | 15008 ft | 271 kts | 129° |
| 2026-04-30 21:09 | 17.63053 | -62.52616 | 15002 ft | 271 kts | 129° |
| 2026-04-30 21:10 | 17.61949 | -62.51020 | 15005 ft | 271 kts | 128° |
| 2026-04-30 21:10 | 17.60870 | -62.49459 | 15005 ft | 270 kts | 128° |
| 2026-04-30 21:10 | 17.59765 | -62.47862 | 14998 ft | 270 kts | 128° |
| 2026-04-30 21:10 | 17.58663 | -62.46269 | 15005 ft | 270 kts | 128° |
| 2026-04-30 21:11 | 17.57557 | -62.44671 | 15000 ft | 270 kts | 128° |
| 2026-04-30 21:11 | 17.56453 | -62.43076 | 15000 ft | 270 kts | 128° |
| 2026-04-30 21:11 | 17.55350 | -62.41483 | 15000 ft | 270 kts | 128° |
| 2026-04-30 21:11 | 17.54246 | -62.39890 | 14997 ft | 270 kts | 128° |
| 2026-04-30 21:12 | 17.53142 | -62.38295 | 14991 ft | 270 kts | 128° |
| 2026-04-30 21:12 | 17.52039 | -62.36705 | 14992 ft | 270 kts | 128° |
| 2026-04-30 21:12 | 17.50935 | -62.35111 | 14992 ft | 270 kts | 128° |
| 2026-04-30 21:12 | 17.49829 | -62.33517 | 14997 ft | 270 kts | 128° |
| 2026-04-30 21:13 | 17.48724 | -62.31924 | 15000 ft | 270 kts | 128° |
| 2026-04-30 21:13 | 17.47621 | -62.30335 | 15000 ft | 270 kts | 128° |
| 2026-04-30 21:13 | 17.46516 | -62.28741 | 15002 ft | 270 kts | 128° |
| 2026-04-30 21:13 | 17.45409 | -62.27145 | 14999 ft | 270 kts | 128° |
| 2026-04-30 21:14 | 17.44325 | -62.25582 | 14997 ft | 267 kts | 128° |
| 2026-04-30 21:14 | 17.43237 | -62.24015 | 14995 ft | 265 kts | 128° |
| 2026-04-30 21:14 | 17.42154 | -62.22456 | 14988 ft | 264 kts | 128° |
| 2026-04-30 21:14 | 17.41075 | -62.20902 | 14986 ft | 264 kts | 128° |
| 2026-04-30 21:15 | 17.39996 | -62.19350 | 14981 ft | 263 kts | 128° |
| 2026-04-30 21:15 | 17.38916 | -62.17795 | 14988 ft | 263 kts | 129° |
| 2026-04-30 21:15 | 17.37851 | -62.16263 | 14992 ft | 263 kts | 129° |
| 2026-04-30 21:15 | 17.36776 | -62.14717 | 14992 ft | 263 kts | 129° |
| 2026-04-30 21:16 | 17.35696 | -62.13164 | 14896 ft | 267 kts | 128° |
| 2026-04-30 21:16 | 17.34594 | -62.11582 | 14596 ft | 268 kts | 128° |
| 2026-04-30 21:16 | 17.33510 | -62.10022 | 14248 ft | 262 kts | 128° |
| 2026-04-30 21:16 | 17.32446 | -62.08492 | 13900 ft | 259 kts | 128° |
| 2026-04-30 21:17 | 17.31389 | -62.06974 | 13537 ft | 257 kts | 128° |
| 2026-04-30 21:17 | 17.30341 | -62.05468 | 13187 ft | 255 kts | 128° |
| 2026-04-30 21:17 | 17.29301 | -62.03975 | 12847 ft | 254 kts | 128° |
| 2026-04-30 21:17 | 17.28264 | -62.02486 | 12507 ft | 252 kts | 127° |
| 2026-04-30 21:18 | 17.27232 | -62.01004 | 12179 ft | 251 kts | 128° |
| 2026-04-30 21:18 | 17.26202 | -61.99527 | 11842 ft | 250 kts | 128° |
| 2026-04-30 21:18 | 17.25127 | -61.98111 | 11491 ft | 247 kts | 141° |
| 2026-04-30 21:18 | 17.23585 | -61.97446 | 11116 ft | 241 kts | 179° |
| 2026-04-30 21:19 | 17.21949 | -61.97696 | 10789 ft | 236 kts | 194° |
| 2026-04-30 21:19 | 17.20341 | -61.98039 | 10485 ft | 236 kts | 189° |
| 2026-04-30 21:19 | 17.18701 | -61.98102 | 10174 ft | 236 kts | 176° |
| 2026-04-30 21:19 | 17.17068 | -61.97896 | 9873 ft | 236 kts | 172° |
| 2026-04-30 21:20 | 17.15440 | -61.97669 | 9544 ft | 235 kts | 173° |
| 2026-04-30 21:20 | 17.13836 | -61.97497 | 9218 ft | 234 kts | 174° |
| 2026-04-30 21:20 | 17.12223 | -61.97336 | 8891 ft | 232 kts | 174° |
| 2026-04-30 21:20 | 17.10627 | -61.97170 | 8570 ft | 229 kts | 173° |
| 2026-04-30 21:21 | 17.09046 | -61.97000 | 8258 ft | 227 kts | 173° |
| 2026-04-30 21:21 | 17.07512 | -61.96668 | 7916 ft | 228 kts | 152° |
| 2026-04-30 21:21 | 17.05822 | -61.94221 | 7068 ft | 205 kts | 100° |
| 2026-04-30 21:22 | 17.05850 | -61.92817 | 6934 ft | 185 kts | 80° |
| 2026-04-30 21:22 | 17.07736 | -61.89296 | 5667 ft | 184 kts | 61° |
| 2026-04-30 21:23 | 17.08425 | -61.88110 | 4404 ft | 217 kts | 62° |
| 2026-04-30 21:23 | 17.09278 | -61.86617 | 2692 ft | 260 kts | 60° |
| 2026-04-30 21:23 | 17.11176 | -61.83509 | 853 ft | 228 kts | 61° |
| 2026-04-30 21:24 | 17.11853 | -61.82342 | 546 ft | 146 kts | 59° |
| 2026-04-30 21:24 | 17.12316 | -61.81587 | 348 ft | 111 kts | 60° |
| 2026-04-30 21:24 | 17.12689 | -61.80946 | 186 ft | 98 kts | 61° |
| 2026-04-30 21:24 | 17.13027 | -61.80359 | 91 ft | 89 kts | 59° |
| 2026-04-30 21:25 | 17.13573 | -61.79429 | 64 ft | 71 kts | 58° |
| 2026-04-30 21:25 | 17.13834 | -61.79005 | 46 ft | 63 kts | 54° |
| 2026-04-30 21:25 | 17.14114 | -61.78778 | 44 ft | 32 kts | 346° |
| 2026-04-30 21:26 | 17.14293 | -61.78807 | 44 ft | 7 kts | 69° |
| 2026-04-30 21:26 | 17.14293 | -61.78799 | 44 ft | 0 kts | 223° |
| 2026-04-30 21:28 | 17.14108 | -61.79019 | 46 ft | 0 kts | 339° |